sensor_id;sensor_type;location;lat;lon;timestamp;temperature;humidity
58582;DHT22;44361;51.476;5.700;2023-02-18T00:01:14;11.50;99.90
58582;DHT22;44361;51.476;5.700;2023-02-18T00:03:40;11.50;99.90
58582;DHT22;44361;51.476;5.700;2023-02-18T00:06:30;11.50;99.90
58582;DHT22;44361;51.476;5.700;2023-02-18T00:08:56;11.50;99.90
58582;DHT22;44361;51.476;5.700;2023-02-18T00:11:23;11.50;99.90
58582;DHT22;44361;51.476;5.700;2023-02-18T00:14:00;11.50;99.90
58582;DHT22;44361;51.476;5.700;2023-02-18T00:16:27;11.50;99.90
58582;DHT22;44361;51.476;5.700;2023-02-18T00:18:58;11.40;99.90
58582;DHT22;44361;51.476;5.700;2023-02-18T00:21:24;11.50;99.90
58582;DHT22;44361;51.476;5.700;2023-02-18T00:23:50;11.40;99.90
58582;DHT22;44361;51.476;5.700;2023-02-18T00:26:17;11.50;99.90
58582;DHT22;44361;51.476;5.700;2023-02-18T00:28:43;11.50;99.90
58582;DHT22;44361;51.476;5.700;2023-02-18T00:31:12;11.50;99.90
58582;DHT22;44361;51.476;5.700;2023-02-18T00:33:39;11.50;99.90
58582;DHT22;44361;51.476;5.700;2023-02-18T00:36:08;11.50;99.90
58582;DHT22;44361;51.476;5.700;2023-02-18T00:38:34;11.40;99.90
58582;DHT22;44361;51.476;5.700;2023-02-18T00:41:01;11.40;99.90
58582;DHT22;44361;51.476;5.700;2023-02-18T00:43:27;11.40;99.90
58582;DHT22;44361;51.476;5.700;2023-02-18T00:45:53;11.40;99.90
58582;DHT22;44361;51.476;5.700;2023-02-18T00:48:18;11.40;99.90
58582;DHT22;44361;51.476;5.700;2023-02-18T00:50:44;11.40;99.90
58582;DHT22;44361;51.476;5.700;2023-02-18T00:53:10;11.40;99.90
58582;DHT22;44361;51.476;5.700;2023-02-18T00:55:43;11.40;99.90
58582;DHT22;44361;51.476;5.700;2023-02-18T00:58:09;11.40;99.90
58582;DHT22;44361;51.476;5.700;2023-02-18T01:00:35;11.40;99.90
58582;DHT22;44361;51.476;5.700;2023-02-18T01:03:01;11.40;99.90
58582;DHT22;44361;51.476;5.700;2023-02-18T01:05:26;11.30;99.90
58582;DHT22;44361;51.476;5.700;2023-02-18T01:07:52;11.30;99.90
58582;DHT22;44361;51.476;5.700;2023-02-18T01:10:17;11.30;99.90
58582;DHT22;44361;51.476;5.700;2023-02-18T01:12:43;11.20;99.90
58582;DHT22;44361;51.476;5.700;2023-02-18T01:15:10;11.30;99.90
58582;DHT22;44361;51.476;5.700;2023-02-18T01:17:38;11.30;99.90
58582;DHT22;44361;51.476;5.700;2023-02-18T01:20:04;11.20;99.90
58582;DHT22;44361;51.476;5.700;2023-02-18T01:22:30;11.30;99.90
58582;DHT22;44361;51.476;5.700;2023-02-18T01:24:55;11.20;99.90
58582;DHT22;44361;51.476;5.700;2023-02-18T01:27:21;11.20;99.90
58582;DHT22;44361;51.476;5.700;2023-02-18T01:29:46;11.10;99.90
58582;DHT22;44361;51.476;5.700;2023-02-18T01:32:12;11.10;99.90
58582;DHT22;44361;51.476;5.700;2023-02-18T01:34:37;11.10;99.90
58582;DHT22;44361;51.476;5.700;2023-02-18T01:37:03;11.00;99.90
58582;DHT22;44361;51.476;5.700;2023-02-18T01:39:29;11.10;99.90
58582;DHT22;44361;51.476;5.700;2023-02-18T01:41:54;11.00;99.90
58582;DHT22;44361;51.476;5.700;2023-02-18T01:44:22;11.00;99.90
58582;DHT22;44361;51.476;5.700;2023-02-18T01:46:48;11.00;99.90
58582;DHT22;44361;51.476;5.700;2023-02-18T01:49:22;10.90;99.90
58582;DHT22;44361;51.476;5.700;2023-02-18T01:51:59;10.90;99.90
58582;DHT22;44361;51.476;5.700;2023-02-18T01:54:30;10.90;99.90
58582;DHT22;44361;51.476;5.700;2023-02-18T01:57:06;10.80;99.90
58582;DHT22;44361;51.476;5.700;2023-02-18T01:59:38;10.80;99.90
58582;DHT22;44361;51.476;5.700;2023-02-18T02:02:07;10.80;99.90
58582;DHT22;44361;51.476;5.700;2023-02-18T02:04:33;10.70;99.90
58582;DHT22;44361;51.476;5.700;2023-02-18T02:06:59;10.80;99.90
58582;DHT22;44361;51.476;5.700;2023-02-18T02:09:26;10.70;99.90
58582;DHT22;44361;51.476;5.700;2023-02-18T02:17:48;10.70;99.90
58582;DHT22;44361;51.476;5.700;2023-02-18T02:20:57;10.70;99.90
58582;DHT22;44361;51.476;5.700;2023-02-18T02:29:32;10.60;99.90
58582;DHT22;44361;51.476;5.700;2023-02-18T02:35:32;10.60;99.90
58582;DHT22;44361;51.476;5.700;2023-02-18T02:38:39;10.60;99.90
58582;DHT22;44361;51.476;5.700;2023-02-18T02:41:19;10.60;99.90
58582;DHT22;44361;51.476;5.700;2023-02-18T02:43:58;10.60;99.90
58582;DHT22;44361;51.476;5.700;2023-02-18T02:46:34;10.60;99.90
58582;DHT22;44361;51.476;5.700;2023-02-18T02:49:23;10.60;99.90
58582;DHT22;44361;51.476;5.700;2023-02-18T02:51:58;10.60;99.90
58582;DHT22;44361;51.476;5.700;2023-02-18T02:54:26;10.60;99.90
58582;DHT22;44361;51.476;5.700;2023-02-18T02:59:41;10.60;99.90
58582;DHT22;44361;51.476;5.700;2023-02-18T03:02:11;10.60;99.90
58582;DHT22;44361;51.476;5.700;2023-02-18T03:05:09;10.60;99.90
58582;DHT22;44361;51.476;5.700;2023-02-18T03:10:38;10.60;99.90
58582;DHT22;44361;51.476;5.700;2023-02-18T03:13:15;10.60;99.90
58582;DHT22;44361;51.476;5.700;2023-02-18T03:18:29;10.60;99.90
58582;DHT22;44361;51.476;5.700;2023-02-18T03:21:13;10.60;99.90
58582;DHT22;44361;51.476;5.700;2023-02-18T03:24:01;10.60;99.90
58582;DHT22;44361;51.476;5.700;2023-02-18T03:26:30;10.60;99.90
58582;DHT22;44361;51.476;5.700;2023-02-18T03:29:00;10.50;99.90
58582;DHT22;44361;51.476;5.700;2023-02-18T03:31:27;10.60;99.90
58582;DHT22;44361;51.476;5.700;2023-02-18T03:34:15;10.60;99.90
58582;DHT22;44361;51.476;5.700;2023-02-18T03:36:42;10.50;99.90
58582;DHT22;44361;51.476;5.700;2023-02-18T03:39:17;10.50;99.90
58582;DHT22;44361;51.476;5.700;2023-02-18T03:41:44;10.50;99.90
58582;DHT22;44361;51.476;5.700;2023-02-18T03:44:11;10.50;99.90
58582;DHT22;44361;51.476;5.700;2023-02-18T03:46:39;10.50;99.90
58582;DHT22;44361;51.476;5.700;2023-02-18T03:49:05;10.50;99.90
58582;DHT22;44361;51.476;5.700;2023-02-18T03:51:31;10.50;99.90
58582;DHT22;44361;51.476;5.700;2023-02-18T03:53:57;10.50;99.90
58582;DHT22;44361;51.476;5.700;2023-02-18T03:56:23;10.50;99.90
58582;DHT22;44361;51.476;5.700;2023-02-18T03:58:49;10.50;99.90
58582;DHT22;44361;51.476;5.700;2023-02-18T04:01:15;10.40;99.90
58582;DHT22;44361;51.476;5.700;2023-02-18T04:03:41;10.50;99.90
58582;DHT22;44361;51.476;5.700;2023-02-18T04:06:07;10.40;99.90
58582;DHT22;44361;51.476;5.700;2023-02-18T04:08:32;10.40;99.90
58582;DHT22;44361;51.476;5.700;2023-02-18T04:10:58;10.40;99.90
58582;DHT22;44361;51.476;5.700;2023-02-18T04:13:24;10.40;99.90
58582;DHT22;44361;51.476;5.700;2023-02-18T04:15:50;10.40;99.90
58582;DHT22;44361;51.476;5.700;2023-02-18T04:18:16;10.40;99.90
58582;DHT22;44361;51.476;5.700;2023-02-18T04:20:42;10.40;99.90
58582;DHT22;44361;51.476;5.700;2023-02-18T04:23:08;10.40;99.90
58582;DHT22;44361;51.476;5.700;2023-02-18T04:25:33;10.40;99.90
58582;DHT22;44361;51.476;5.700;2023-02-18T04:27:59;10.40;99.90
58582;DHT22;44361;51.476;5.700;2023-02-18T04:30:25;10.40;99.90
58582;DHT22;44361;51.476;5.700;2023-02-18T04:32:50;10.40;99.90
58582;DHT22;44361;51.476;5.700;2023-02-18T04:35:16;10.40;99.90
58582;DHT22;44361;51.476;5.700;2023-02-18T04:37:42;10.40;99.90
58582;DHT22;44361;51.476;5.700;2023-02-18T04:40:07;10.40;99.90
58582;DHT22;44361;51.476;5.700;2023-02-18T04:42:33;10.40;99.90
58582;DHT22;44361;51.476;5.700;2023-02-18T04:44:59;10.40;99.90
58582;DHT22;44361;51.476;5.700;2023-02-18T04:47:25;10.40;99.90
58582;DHT22;44361;51.476;5.700;2023-02-18T04:49:51;10.40;99.90
58582;DHT22;44361;51.476;5.700;2023-02-18T04:52:16;10.40;99.90
58582;DHT22;44361;51.476;5.700;2023-02-18T04:54:42;10.40;99.90
58582;DHT22;44361;51.476;5.700;2023-02-18T04:57:07;10.40;99.90
58582;DHT22;44361;51.476;5.700;2023-02-18T04:59:33;10.40;99.90
58582;DHT22;44361;51.476;5.700;2023-02-18T05:01:58;10.40;99.90
58582;DHT22;44361;51.476;5.700;2023-02-18T05:04:24;10.40;99.90
58582;DHT22;44361;51.476;5.700;2023-02-18T05:06:49;10.30;99.90
58582;DHT22;44361;51.476;5.700;2023-02-18T05:09:15;10.30;99.90
58582;DHT22;44361;51.476;5.700;2023-02-18T05:11:41;10.40;99.90
58582;DHT22;44361;51.476;5.700;2023-02-18T05:14:07;10.40;99.90
58582;DHT22;44361;51.476;5.700;2023-02-18T05:16:32;10.40;99.90
58582;DHT22;44361;51.476;5.700;2023-02-18T05:18:58;10.40;99.90
58582;DHT22;44361;51.476;5.700;2023-02-18T05:21:24;10.40;99.90
58582;DHT22;44361;51.476;5.700;2023-02-18T05:23:49;10.40;99.90
58582;DHT22;44361;51.476;5.700;2023-02-18T05:26:15;10.30;99.90
58582;DHT22;44361;51.476;5.700;2023-02-18T05:28:40;10.30;99.90
58582;DHT22;44361;51.476;5.700;2023-02-18T05:31:06;10.30;99.90
58582;DHT22;44361;51.476;5.700;2023-02-18T05:33:31;10.40;99.90
58582;DHT22;44361;51.476;5.700;2023-02-18T05:35:57;10.40;99.90
58582;DHT22;44361;51.476;5.700;2023-02-18T05:38:23;10.40;99.90
58582;DHT22;44361;51.476;5.700;2023-02-18T05:40:49;10.30;99.90
58582;DHT22;44361;51.476;5.700;2023-02-18T05:43:15;10.30;99.90
58582;DHT22;44361;51.476;5.700;2023-02-18T05:45:40;10.40;99.90
58582;DHT22;44361;51.476;5.700;2023-02-18T05:48:06;10.30;99.90
58582;DHT22;44361;51.476;5.700;2023-02-18T05:50:32;10.30;99.90
58582;DHT22;44361;51.476;5.700;2023-02-18T05:52:58;10.40;99.90
58582;DHT22;44361;51.476;5.700;2023-02-18T05:55:23;10.30;99.90
58582;DHT22;44361;51.476;5.700;2023-02-18T05:57:49;10.40;99.90
58582;DHT22;44361;51.476;5.700;2023-02-18T06:00:16;10.40;99.90
58582;DHT22;44361;51.476;5.700;2023-02-18T06:02:41;10.40;99.90
58582;DHT22;44361;51.476;5.700;2023-02-18T06:05:08;10.40;99.90
58582;DHT22;44361;51.476;5.700;2023-02-18T06:07:34;10.40;99.90
58582;DHT22;44361;51.476;5.700;2023-02-18T06:09:59;10.30;99.90
58582;DHT22;44361;51.476;5.700;2023-02-18T06:12:25;10.30;99.90
58582;DHT22;44361;51.476;5.700;2023-02-18T06:14:51;10.30;99.90
58582;DHT22;44361;51.476;5.700;2023-02-18T06:17:16;10.30;99.90
58582;DHT22;44361;51.476;5.700;2023-02-18T06:19:43;10.30;99.90
58582;DHT22;44361;51.476;5.700;2023-02-18T06:22:09;10.30;99.90
58582;DHT22;44361;51.476;5.700;2023-02-18T06:24:34;10.30;99.90
58582;DHT22;44361;51.476;5.700;2023-02-18T06:27:00;10.20;99.90
58582;DHT22;44361;51.476;5.700;2023-02-18T06:29:26;10.20;99.90
58582;DHT22;44361;51.476;5.700;2023-02-18T06:31:54;10.20;99.90
58582;DHT22;44361;51.476;5.700;2023-02-18T06:34:19;10.20;99.90
58582;DHT22;44361;51.476;5.700;2023-02-18T06:36:45;10.20;99.90
58582;DHT22;44361;51.476;5.700;2023-02-18T06:39:10;10.20;99.90
58582;DHT22;44361;51.476;5.700;2023-02-18T06:41:36;10.20;99.90
58582;DHT22;44361;51.476;5.700;2023-02-18T06:44:01;10.20;99.90
58582;DHT22;44361;51.476;5.700;2023-02-18T06:46:27;10.30;99.90
58582;DHT22;44361;51.476;5.700;2023-02-18T06:48:52;10.20;99.90
58582;DHT22;44361;51.476;5.700;2023-02-18T06:51:18;10.20;99.90
58582;DHT22;44361;51.476;5.700;2023-02-18T06:53:44;10.20;99.90
58582;DHT22;44361;51.476;5.700;2023-02-18T06:56:10;10.20;99.90
58582;DHT22;44361;51.476;5.700;2023-02-18T06:58:36;10.20;99.90
58582;DHT22;44361;51.476;5.700;2023-02-18T07:01:02;10.20;99.90
58582;DHT22;44361;51.476;5.700;2023-02-18T07:03:27;10.20;99.90
58582;DHT22;44361;51.476;5.700;2023-02-18T07:05:53;10.20;99.90
58582;DHT22;44361;51.476;5.700;2023-02-18T07:08:19;10.20;99.90
58582;DHT22;44361;51.476;5.700;2023-02-18T07:10:44;10.10;99.90
58582;DHT22;44361;51.476;5.700;2023-02-18T07:13:10;10.20;99.90
58582;DHT22;44361;51.476;5.700;2023-02-18T07:15:35;10.10;99.90
58582;DHT22;44361;51.476;5.700;2023-02-18T07:18:01;10.10;99.90
58582;DHT22;44361;51.476;5.700;2023-02-18T07:20:26;10.10;99.90
58582;DHT22;44361;51.476;5.700;2023-02-18T07:22:52;10.10;99.90
58582;DHT22;44361;51.476;5.700;2023-02-18T07:25:18;10.10;99.90
58582;DHT22;44361;51.476;5.700;2023-02-18T07:27:44;10.10;99.90
58582;DHT22;44361;51.476;5.700;2023-02-18T07:30:10;10.00;99.90
58582;DHT22;44361;51.476;5.700;2023-02-18T07:32:35;10.00;99.90
58582;DHT22;44361;51.476;5.700;2023-02-18T07:35:02;10.00;99.90
58582;DHT22;44361;51.476;5.700;2023-02-18T07:37:28;9.90;99.90
58582;DHT22;44361;51.476;5.700;2023-02-18T07:39:53;9.80;99.90
58582;DHT22;44361;51.476;5.700;2023-02-18T07:42:19;9.80;99.90
58582;DHT22;44361;51.476;5.700;2023-02-18T07:44:45;9.80;99.90
58582;DHT22;44361;51.476;5.700;2023-02-18T07:47:14;9.80;99.90
58582;DHT22;44361;51.476;5.700;2023-02-18T07:49:40;9.70;99.90
58582;DHT22;44361;51.476;5.700;2023-02-18T07:52:05;9.70;99.90
58582;DHT22;44361;51.476;5.700;2023-02-18T07:54:31;9.80;99.90
58582;DHT22;44361;51.476;5.700;2023-02-18T07:56:56;9.70;99.90
58582;DHT22;44361;51.476;5.700;2023-02-18T07:59:22;9.70;99.90
58582;DHT22;44361;51.476;5.700;2023-02-18T08:01:47;9.70;99.90
58582;DHT22;44361;51.476;5.700;2023-02-18T08:04:13;9.80;99.90
58582;DHT22;44361;51.476;5.700;2023-02-18T08:06:44;9.80;99.90
58582;DHT22;44361;51.476;5.700;2023-02-18T08:09:11;9.80;99.90
58582;DHT22;44361;51.476;5.700;2023-02-18T08:11:37;9.80;99.90
58582;DHT22;44361;51.476;5.700;2023-02-18T08:14:03;9.80;99.90
58582;DHT22;44361;51.476;5.700;2023-02-18T08:16:29;9.90;99.90
58582;DHT22;44361;51.476;5.700;2023-02-18T08:18:55;9.80;99.90
58582;DHT22;44361;51.476;5.700;2023-02-18T08:21:23;9.80;99.90
58582;DHT22;44361;51.476;5.700;2023-02-18T08:23:49;9.90;99.90
58582;DHT22;44361;51.476;5.700;2023-02-18T08:26:15;9.90;99.90
58582;DHT22;44361;51.476;5.700;2023-02-18T08:28:42;9.90;99.90
58582;DHT22;44361;51.476;5.700;2023-02-18T08:31:15;9.90;99.90
58582;DHT22;44361;51.476;5.700;2023-02-18T08:33:41;9.90;99.90
58582;DHT22;44361;51.476;5.700;2023-02-18T08:36:07;10.00;99.90
58582;DHT22;44361;51.476;5.700;2023-02-18T08:38:34;10.00;99.90
58582;DHT22;44361;51.476;5.700;2023-02-18T08:41:01;10.00;99.90
58582;DHT22;44361;51.476;5.700;2023-02-18T08:43:27;10.00;99.90
58582;DHT22;44361;51.476;5.700;2023-02-18T08:45:53;10.10;99.90
58582;DHT22;44361;51.476;5.700;2023-02-18T08:48:18;10.10;99.90
58582;DHT22;44361;51.476;5.700;2023-02-18T08:50:44;10.20;99.90
58582;DHT22;44361;51.476;5.700;2023-02-18T08:53:09;10.30;99.90
58582;DHT22;44361;51.476;5.700;2023-02-18T08:55:35;10.40;99.90
58582;DHT22;44361;51.476;5.700;2023-02-18T08:58:03;10.40;99.90
58582;DHT22;44361;51.476;5.700;2023-02-18T09:00:29;10.40;99.90
58582;DHT22;44361;51.476;5.700;2023-02-18T09:02:55;10.40;99.90
58582;DHT22;44361;51.476;5.700;2023-02-18T09:05:20;10.40;99.90
58582;DHT22;44361;51.476;5.700;2023-02-18T09:07:46;10.40;99.90
58582;DHT22;44361;51.476;5.700;2023-02-18T09:10:11;10.40;99.90
58582;DHT22;44361;51.476;5.700;2023-02-18T09:12:37;10.40;99.90
58582;DHT22;44361;51.476;5.700;2023-02-18T09:15:02;10.40;99.90
58582;DHT22;44361;51.476;5.700;2023-02-18T09:17:29;10.50;99.90
58582;DHT22;44361;51.476;5.700;2023-02-18T09:19:55;10.50;99.90
58582;DHT22;44361;51.476;5.700;2023-02-18T09:22:20;10.50;99.90
58582;DHT22;44361;51.476;5.700;2023-02-18T09:24:46;10.60;99.90
58582;DHT22;44361;51.476;5.700;2023-02-18T09:27:11;10.60;99.90
58582;DHT22;44361;51.476;5.700;2023-02-18T09:29:38;10.60;99.90
58582;DHT22;44361;51.476;5.700;2023-02-18T09:32:05;10.60;99.90
58582;DHT22;44361;51.476;5.700;2023-02-18T09:34:32;10.60;99.90
58582;DHT22;44361;51.476;5.700;2023-02-18T09:36:57;10.60;99.90
58582;DHT22;44361;51.476;5.700;2023-02-18T09:39:23;10.50;99.90
58582;DHT22;44361;51.476;5.700;2023-02-18T09:41:49;10.40;99.90
58582;DHT22;44361;51.476;5.700;2023-02-18T09:44:22;10.30;99.90
58582;DHT22;44361;51.476;5.700;2023-02-18T09:46:55;10.20;99.90
58582;DHT22;44361;51.476;5.700;2023-02-18T09:49:34;10.20;99.90
58582;DHT22;44361;51.476;5.700;2023-02-18T09:52:14;10.20;99.90
58582;DHT22;44361;51.476;5.700;2023-02-18T09:54:40;10.20;99.90
58582;DHT22;44361;51.476;5.700;2023-02-18T09:57:18;10.20;99.90
58582;DHT22;44361;51.476;5.700;2023-02-18T09:59:51;10.20;99.90
58582;DHT22;44361;51.476;5.700;2023-02-18T10:02:19;10.20;99.90
58582;DHT22;44361;51.476;5.700;2023-02-18T10:04:45;10.30;99.90
58582;DHT22;44361;51.476;5.700;2023-02-18T10:07:22;10.30;99.90
58582;DHT22;44361;51.476;5.700;2023-02-18T10:09:51;10.40;99.90
58582;DHT22;44361;51.476;5.700;2023-02-18T10:12:19;10.40;99.90
58582;DHT22;44361;51.476;5.700;2023-02-18T10:14:51;10.40;99.90
58582;DHT22;44361;51.476;5.700;2023-02-18T10:17:17;10.40;99.90
58582;DHT22;44361;51.476;5.700;2023-02-18T10:19:45;10.40;99.90
58582;DHT22;44361;51.476;5.700;2023-02-18T10:22:13;10.50;99.90
58582;DHT22;44361;51.476;5.700;2023-02-18T10:24:51;10.50;99.90
58582;DHT22;44361;51.476;5.700;2023-02-18T10:27:38;10.60;99.90
58582;DHT22;44361;51.476;5.700;2023-02-18T10:32:42;10.70;99.90
58582;DHT22;44361;51.476;5.700;2023-02-18T10:35:33;10.80;99.90
58582;DHT22;44361;51.476;5.700;2023-02-18T10:46:43;10.50;99.90
58582;DHT22;44361;51.476;5.700;2023-02-18T10:51:58;10.50;99.90
58582;DHT22;44361;51.476;5.700;2023-02-18T10:54:26;10.50;99.90
58582;DHT22;44361;51.476;5.700;2023-02-18T10:57:17;10.50;99.90
58582;DHT22;44361;51.476;5.700;2023-02-18T10:59:59;10.40;99.90
58582;DHT22;44361;51.476;5.700;2023-02-18T11:02:29;10.40;99.90
58582;DHT22;44361;51.476;5.700;2023-02-18T11:04:57;10.30;99.90
58582;DHT22;44361;51.476;5.700;2023-02-18T11:07:30;10.30;99.90
58582;DHT22;44361;51.476;5.700;2023-02-18T11:13:00;10.30;99.90
58582;DHT22;44361;51.476;5.700;2023-02-18T11:15:27;10.20;99.90
58582;DHT22;44361;51.476;5.700;2023-02-18T11:17:55;10.20;99.90
58582;DHT22;44361;51.476;5.700;2023-02-18T11:25:34;10.10;99.90
58582;DHT22;44361;51.476;5.700;2023-02-18T11:30:42;10.10;99.90
58582;DHT22;44361;51.476;5.700;2023-02-18T11:33:09;10.20;99.90
58582;DHT22;44361;51.476;5.700;2023-02-18T11:35:39;10.10;99.90
58582;DHT22;44361;51.476;5.700;2023-02-18T11:38:24;10.20;99.90
58582;DHT22;44361;51.476;5.700;2023-02-18T11:41:09;10.20;99.90
58582;DHT22;44361;51.476;5.700;2023-02-18T11:43:35;10.30;99.90
58582;DHT22;44361;51.476;5.700;2023-02-18T11:46:17;10.30;99.90
58582;DHT22;44361;51.476;5.700;2023-02-18T11:48:43;10.30;99.90
58582;DHT22;44361;51.476;5.700;2023-02-18T11:51:22;10.40;99.90
58582;DHT22;44361;51.476;5.700;2023-02-18T11:54:09;10.40;99.90
58582;DHT22;44361;51.476;5.700;2023-02-18T11:56:54;10.40;99.90
58582;DHT22;44361;51.476;5.700;2023-02-18T11:59:21;10.40;99.90
58582;DHT22;44361;51.476;5.700;2023-02-18T12:01:52;10.40;99.90
58582;DHT22;44361;51.476;5.700;2023-02-18T12:04:40;10.40;99.90
58582;DHT22;44361;51.476;5.700;2023-02-18T12:07:20;10.40;99.90
58582;DHT22;44361;51.476;5.700;2023-02-18T12:09:56;10.30;99.90
58582;DHT22;44361;51.476;5.700;2023-02-18T12:15:11;10.40;99.90
58582;DHT22;44361;51.476;5.700;2023-02-18T12:17:48;10.50;99.90
58582;DHT22;44361;51.476;5.700;2023-02-18T12:26:40;10.70;99.90
58582;DHT22;44361;51.476;5.700;2023-02-18T12:29:16;10.80;99.90
58582;DHT22;44361;51.476;5.700;2023-02-18T12:31:48;11.00;99.90
58582;DHT22;44361;51.476;5.700;2023-02-18T12:37:19;11.40;99.90
58582;DHT22;44361;51.476;5.700;2023-02-18T12:51:43;12.00;99.90
58582;DHT22;44361;51.476;5.700;2023-02-18T12:59:51;11.80;99.90
58582;DHT22;44361;51.476;5.700;2023-02-18T13:05:52;11.70;99.90
58582;DHT22;44361;51.476;5.700;2023-02-18T13:14:22;11.70;99.90
58582;DHT22;44361;51.476;5.700;2023-02-18T13:16:51;11.70;99.90
58582;DHT22;44361;51.476;5.700;2023-02-18T13:19:24;11.70;99.90
58582;DHT22;44361;51.476;5.700;2023-02-18T13:21:53;11.70;99.90
58582;DHT22;44361;51.476;5.700;2023-02-18T13:33:00;11.80;99.90
58582;DHT22;44361;51.476;5.700;2023-02-18T13:35:45;11.80;99.90
58582;DHT22;44361;51.476;5.700;2023-02-18T13:41:04;12.00;99.90
58582;DHT22;44361;51.476;5.700;2023-02-18T13:43:32;11.90;99.90
58582;DHT22;44361;51.476;5.700;2023-02-18T13:46:09;11.80;99.90
58582;DHT22;44361;51.476;5.700;2023-02-18T13:48:48;11.70;99.90
58582;DHT22;44361;51.476;5.700;2023-02-18T13:51:39;11.70;99.90
58582;DHT22;44361;51.476;5.700;2023-02-18T13:56:46;11.60;99.90
58582;DHT22;44361;51.476;5.700;2023-02-18T14:01:42;11.70;99.90
58582;DHT22;44361;51.476;5.700;2023-02-18T14:04:47;11.80;99.90
58582;DHT22;44361;51.476;5.700;2023-02-18T14:07:26;11.90;99.90
58582;DHT22;44361;51.476;5.700;2023-02-18T14:09:59;12.00;99.90
58582;DHT22;44361;51.476;5.700;2023-02-18T14:22:49;12.20;99.90
58582;DHT22;44361;51.476;5.700;2023-02-18T14:25:40;12.30;99.90
58582;DHT22;44361;51.476;5.700;2023-02-18T14:31:46;12.20;99.90
58582;DHT22;44361;51.476;5.700;2023-02-18T14:34:09;12.20;99.90
58582;DHT22;44361;51.476;5.700;2023-02-18T14:37:15;12.30;99.90
58582;DHT22;44361;51.476;5.700;2023-02-18T14:42:26;12.30;99.90
58582;DHT22;44361;51.476;5.700;2023-02-18T14:45:57;12.20;99.90
58582;DHT22;44361;51.476;5.700;2023-02-18T14:48:27;12.10;99.90
58582;DHT22;44361;51.476;5.700;2023-02-18T14:50:56;12.20;99.90
58582;DHT22;44361;51.476;5.700;2023-02-18T14:53:25;12.20;99.90
58582;DHT22;44361;51.476;5.700;2023-02-18T14:56:02;12.10;99.90
58582;DHT22;44361;51.476;5.700;2023-02-18T14:58:37;12.20;99.90
58582;DHT22;44361;51.476;5.700;2023-02-18T15:01:27;12.20;99.90
58582;DHT22;44361;51.476;5.700;2023-02-18T15:03:53;12.20;99.90
58582;DHT22;44361;51.476;5.700;2023-02-18T15:06:32;12.20;99.90
58582;DHT22;44361;51.476;5.700;2023-02-18T15:09:00;12.20;99.90
58582;DHT22;44361;51.476;5.700;2023-02-18T15:11:38;12.20;99.90
58582;DHT22;44361;51.476;5.700;2023-02-18T15:14:17;12.30;99.90
58582;DHT22;44361;51.476;5.700;2023-02-18T15:16:43;12.20;99.90
58582;DHT22;44361;51.476;5.700;2023-02-18T15:19:16;12.20;99.90
58582;DHT22;44361;51.476;5.700;2023-02-18T15:21:46;12.30;99.90
58582;DHT22;44361;51.476;5.700;2023-02-18T15:24:33;12.20;99.90
58582;DHT22;44361;51.476;5.700;2023-02-18T15:27:12;12.20;99.90
58582;DHT22;44361;51.476;5.700;2023-02-18T15:29:39;12.20;99.90
58582;DHT22;44361;51.476;5.700;2023-02-18T15:32:20;12.10;99.90
58582;DHT22;44361;51.476;5.700;2023-02-18T15:34:51;12.10;99.90
58582;DHT22;44361;51.476;5.700;2023-02-18T15:37:18;12.20;99.90
58582;DHT22;44361;51.476;5.700;2023-02-18T15:39:45;12.10;99.90
58582;DHT22;44361;51.476;5.700;2023-02-18T15:42:27;12.10;99.90
58582;DHT22;44361;51.476;5.700;2023-02-18T15:45:13;12.10;99.90
58582;DHT22;44361;51.476;5.700;2023-02-18T15:47:51;12.20;99.90
58582;DHT22;44361;51.476;5.700;2023-02-18T15:50:33;12.10;99.90
58582;DHT22;44361;51.476;5.700;2023-02-18T15:53:05;12.20;99.90
58582;DHT22;44361;51.476;5.700;2023-02-18T15:55:34;12.20;99.90
58582;DHT22;44361;51.476;5.700;2023-02-18T15:58:03;12.20;99.90
58582;DHT22;44361;51.476;5.700;2023-02-18T16:00:34;12.20;99.90
58582;DHT22;44361;51.476;5.700;2023-02-18T16:03:08;12.20;99.90
58582;DHT22;44361;51.476;5.700;2023-02-18T16:05:38;12.20;99.90
58582;DHT22;44361;51.476;5.700;2023-02-18T16:08:16;12.10;99.90
58582;DHT22;44361;51.476;5.700;2023-02-18T16:10:55;12.10;99.90
58582;DHT22;44361;51.476;5.700;2023-02-18T16:13:22;12.20;99.90
58582;DHT22;44361;51.476;5.700;2023-02-18T16:15:50;12.10;99.90
58582;DHT22;44361;51.476;5.700;2023-02-18T16:18:29;12.10;99.90
58582;DHT22;44361;51.476;5.700;2023-02-18T16:23:54;12.10;99.90
58582;DHT22;44361;51.476;5.700;2023-02-18T16:29:14;12.00;99.90
58582;DHT22;44361;51.476;5.700;2023-02-18T16:31:40;12.00;99.90
58582;DHT22;44361;51.476;5.700;2023-02-18T16:34:06;11.90;99.90
58582;DHT22;44361;51.476;5.700;2023-02-18T16:36:31;11.90;99.90
58582;DHT22;44361;51.476;5.700;2023-02-18T16:38:57;11.90;99.90
58582;DHT22;44361;51.476;5.700;2023-02-18T16:41:26;11.80;99.90
58582;DHT22;44361;51.476;5.700;2023-02-18T16:43:53;11.70;99.90
58582;DHT22;44361;51.476;5.700;2023-02-18T16:46:21;11.60;99.90
58582;DHT22;44361;51.476;5.700;2023-02-18T16:48:52;11.50;99.90
58582;DHT22;44361;51.476;5.700;2023-02-18T16:51:23;11.50;99.90
58582;DHT22;44361;51.476;5.700;2023-02-18T16:53:50;11.50;99.90
58582;DHT22;44361;51.476;5.700;2023-02-18T16:56:20;11.50;99.90
58582;DHT22;44361;51.476;5.700;2023-02-18T16:58:46;11.40;99.90
58582;DHT22;44361;51.476;5.700;2023-02-18T17:01:32;11.40;99.90
58582;DHT22;44361;51.476;5.700;2023-02-18T17:04:00;11.30;99.90
58582;DHT22;44361;51.476;5.700;2023-02-18T17:06:27;11.30;99.90
58582;DHT22;44361;51.476;5.700;2023-02-18T17:08:52;11.30;99.90
58582;DHT22;44361;51.476;5.700;2023-02-18T17:11:20;11.20;99.90
58582;DHT22;44361;51.476;5.700;2023-02-18T17:13:48;11.20;99.90
58582;DHT22;44361;51.476;5.700;2023-02-18T17:16:13;11.20;99.90
58582;DHT22;44361;51.476;5.700;2023-02-18T17:18:39;11.20;99.90
58582;DHT22;44361;51.476;5.700;2023-02-18T17:21:13;11.10;99.90
58582;DHT22;44361;51.476;5.700;2023-02-18T17:23:38;11.00;99.90
58582;DHT22;44361;51.476;5.700;2023-02-18T17:26:22;11.00;99.90
58582;DHT22;44361;51.476;5.700;2023-02-18T17:28:52;10.90;99.90
58582;DHT22;44361;51.476;5.700;2023-02-18T17:31:21;10.90;99.90
58582;DHT22;44361;51.476;5.700;2023-02-18T17:33:48;10.90;99.90
58582;DHT22;44361;51.476;5.700;2023-02-18T17:36:14;10.90;99.90
58582;DHT22;44361;51.476;5.700;2023-02-18T17:38:40;10.90;99.90
58582;DHT22;44361;51.476;5.700;2023-02-18T17:41:06;10.80;99.90
58582;DHT22;44361;51.476;5.700;2023-02-18T17:43:32;10.80;99.90
58582;DHT22;44361;51.476;5.700;2023-02-18T17:45:58;10.80;99.90
58582;DHT22;44361;51.476;5.700;2023-02-18T17:48:24;10.80;99.90
58582;DHT22;44361;51.476;5.700;2023-02-18T17:50:50;10.70;99.90
58582;DHT22;44361;51.476;5.700;2023-02-18T17:53:16;10.70;99.90
58582;DHT22;44361;51.476;5.700;2023-02-18T17:55:43;10.70;99.90